الصفحة الرئيسية
METAR-TAF:

METAR-TAF

مطار :

Casa Grande, أريزونا, الولايات المتحدة

دائرة عرض: 32-57N, خط طول: 111-46W, ارتفاع: 446 متر

مراقبة الطقس الحالي

تاريخ ووقت الإصدار 23 دقيقة قبل الساعة 09:56UTC
ريح 15 عقدة من الشرق/الشمال الشرقي
درجة الحرارة 27°درجة مئوية
الرطوبة 21%
ضغط 1016 hPa
الرؤية: 16.1 كم
سماء صافية

METAR: KCGZ 290956Z AUTO 07015KT 10SM CLR 27/03 A2999 RMK AO2 SLP139 T02720028

زمن: 03:19 (10:19 UTC)


TAF: مفقودة

أرصاد الطقس والتوقعات من أكثر من 4000 مطار (تقارير الطقس للمطار METAR والتنبؤ بالطقس بالمطارTAF).

المحطات المتاحة هي النقط الصفراء والحمراء على الخريطة.

حرك المؤشر فوق النقطة لمعرفة اسم المحطة.

ثم انقر لمعرفة أرصاد وتوقعات الطقس.

لتغيير الخارطة: اضغط على الأزرار الخضراء مع رمز الصليب الأسود للتكبير. على الزر الأخضر مع شرطة للتصغير، أو على الأسهم الخضراء للخرائط المجاورة.


METAR-TAF: